Time;durP1;ratioP1;P1;durP2;ratioP2;P2;SDS_P1;SDS_P2;PMS_P1;PMS_P2;Temp;Humidity;BMP_temperature;BMP_pressure;BME280_temperature;BME280_humidity;BME280_pressure;Samples;Min_cycle;Max_cycle;Signal;HPM_P1;HPM_P2
2021/10/27 00:00:12;;;;;;;20.20;5.60;;;4.10;99.90;;;;;;4734524;30;20055;-80
2021/10/27 00:02:41;;;;;;;6.18;4.07;;;4.00;99.90;;;;;;4746842;30;20066;-80
2021/10/27 00:05:12;;;;;;;29.23;6.40;;;3.90;99.90;;;;;;4759136;30;20070;-80
2021/10/27 00:07:40;;;;;;;4.35;4.05;;;3.70;99.90;;;;;;4766625;30;20067;-80
2021/10/27 00:10:10;;;;;;;6.88;6.28;;;3.70;99.90;;;;;;4763831;30;20051;-79
2021/10/27 00:12:38;;;;;;;5.80;5.30;;;3.80;99.90;;;;;;4764544;30;20494;-79
2021/10/27 00:15:09;;;;;;;7.15;5.78;;;4.00;99.90;;;;;;4746387;30;20064;-79
2021/10/27 00:17:37;;;;;;;6.57;5.63;;;4.10;99.90;;;;;;4730971;30;20049;-80
2021/10/27 00:20:07;;;;;;;5.40;4.90;;;4.20;99.90;;;;;;4729020;30;20071;-80
2021/10/27 00:22:36;;;;;;;49.03;8.35;;;4.20;99.90;;;;;;4730736;30;20061;-80
2021/10/27 00:25:06;;;;;;;43.60;8.57;;;4.10;99.90;;;;;;4729719;30;20071;-80
2021/10/27 00:27:33;;;;;;;6.88;5.45;;;4.00;99.90;;;;;;4729032;30;20424;-81
2021/10/27 00:30:03;;;;;;;8.32;6.35;;;3.90;99.90;;;;;;4726135;30;20057;-80
2021/10/27 00:32:31;;;;;;;54.88;10.95;;;3.90;99.90;;;;;;4744083;30;20060;-80
2021/10/27 00:34:59;;;;;;;59.30;8.63;;;3.90;99.90;;;;;;4730065;30;20173;-80
2021/10/27 00:37:26;;;;;;;19.10;6.53;;;4.00;99.90;;;;;;4714682;30;20063;-80
2021/10/27 00:39:54;;;;;;;8.57;5.75;;;4.10;99.90;;;;;;4758326;30;20059;-81
2021/10/27 00:42:23;;;;;;;9.05;5.72;;;4.10;99.90;;;;;;4714098;30;20075;-79
2021/10/27 00:44:50;;;;;;;11.20;6.25;;;4.00;99.90;;;;;;4728852;30;20376;-80
2021/10/27 00:47:18;;;;;;;14.20;6.10;;;3.70;99.90;;;;;;4732845;30;20424;-77
2021/10/27 00:49:46;;;;;;;37.60;5.65;;;3.40;99.90;;;;;;4747838;30;20052;-77
2021/10/27 00:52:16;;;;;;;18.33;7.25;;;3.40;99.90;;;;;;4748122;30;20051;-77
2021/10/27 00:54:47;;;;;;;21.92;6.57;;;3.30;99.90;;;;;;4760624;30;20067;-77
2021/10/27 00:57:17;;;;;;;68.18;8.18;;;3.30;99.90;;;;;;4717317;30;20052;-77
2021/10/27 00:59:45;;;;;;;4.43;4.03;;;3.40;99.90;;;;;;4746321;30;20068;-77
2021/10/27 01:02:16;;;;;;;6.22;5.72;;;3.50;99.90;;;;;;4747654;30;20056;-77
2021/10/27 01:04:46;;;;;;;4.93;4.50;;;3.60;99.90;;;;;;4755599;30;20044;-77
2021/10/27 01:07:15;;;;;;;5.80;5.28;;;3.70;99.90;;;;;;4765942;30;20075;-77
2021/10/27 01:09:44;;;;;;;5.68;5.18;;;3.80;99.90;;;;;;4763703;30;20052;-77
2021/10/27 01:12:12;;;;;;;16.27;6.15;;;3.80;99.90;;;;;;4765269;30;20052;-77
2021/10/27 01:14:43;;;;;;;8.52;5.22;;;3.80;99.90;;;;;;4747561;30;20052;-77
2021/10/27 01:17:17;;;;;;;27.80;7.63;;;3.70;99.90;;;;;;4760818;30;20056;-77
2021/10/27 01:19:55;;;;;;;7.20;4.70;;;3.70;99.90;;;;;;4765755;30;20071;-77
2021/10/27 01:22:25;;;;;;;43.03;7.18;;;3.60;99.90;;;;;;4763907;30;20059;-77
2021/10/27 01:24:54;;;;;;;30.42;7.85;;;3.70;99.90;;;;;;4761692;30;20048;-77
2021/10/27 01:27:22;;;;;;;22.58;6.88;;;3.60;99.90;;;;;;4747691;30;20060;-76
2021/10/27 01:29:50;;;;;;;17.67;4.45;;;3.50;99.90;;;;;;4729408;30;20056;-77
2021/10/27 01:32:24;;;;;;;23.10;6.93;;;3.50;99.90;;;;;;4747791;30;20476;-78
2021/10/27 01:34:52;;;;;;;9.90;6.18;;;3.70;99.90;;;;;;4760162;30;20051;-77
2021/10/27 01:37:21;;;;;;;4.93;4.53;;;3.70;99.90;;;;;;4768186;30;20102;-77
2021/10/27 01:39:49;;;;;;;28.55;6.75;;;3.90;99.90;;;;;;4752539;30;20063;-77
2021/10/27 01:42:17;;;;;;;10.60;7.82;;;3.90;99.90;;;;;;4752931;30;20415;-77
2021/10/27 01:44:45;;;;;;;37.50;9.57;;;3.90;99.90;;;;;;4766562;30;20063;-77
2021/10/27 01:47:14;;;;;;;127.82;15.95;;;3.70;99.90;;;;;;4752651;30;20063;-81
2021/10/27 01:49:42;;;;;;;23.13;5.40;;;3.40;99.90;;;;;;4767325;30;20513;-81
2021/10/27 01:52:10;;;;;;;9.95;5.70;;;3.50;99.90;;;;;;4768232;30;20052;-81
2021/10/27 01:54:40;;;;;;;31.45;9.30;;;3.60;99.90;;;;;;4767786;30;20455;-82
2021/10/27 01:57:10;;;;;;;94.25;12.55;;;3.60;99.90;;;;;;4761337;30;20044;-81
2021/10/27 01:59:39;;;;;;;41.53;8.57;;;3.60;99.90;;;;;;4733248;30;20070;-82
2021/10/27 02:02:13;;;;;;;22.05;9.15;;;3.60;99.90;;;;;;4749924;30;20056;-82
2021/10/27 02:04:44;;;;;;;5.50;5.10;;;3.50;99.90;;;;;;4757764;30;20059;-81
2021/10/27 02:07:11;;;;;;;4.30;3.90;;;3.60;99.90;;;;;;4768278;30;20076;-80
2021/10/27 02:09:39;;;;;;;4.95;4.28;;;3.60;99.90;;;;;;4751694;30;20054;-81
2021/10/27 02:12:07;;;;;;;5.32;4.82;;;3.70;99.90;;;;;;4767592;30;20462;-81
2021/10/27 02:14:35;;;;;;;5.85;4.88;;;3.70;99.90;;;;;;4756930;30;20044;-82
2021/10/27 02:17:04;;;;;;;5.25;4.80;;;3.80;99.90;;;;;;4733897;30;20068;-81
2021/10/27 02:19:32;;;;;;;34.63;8.65;;;3.90;99.90;;;;;;4750125;30;20067;-82
2021/10/27 02:21:59;;;;;;;3.67;3.25;;;3.80;99.90;;;;;;4733598;30;20052;-81
2021/10/27 02:24:27;;;;;;;26.75;8.27;;;3.70;99.90;;;;;;4734089;30;20484;-81
2021/10/27 02:26:55;;;;;;;32.58;6.82;;;3.70;99.90;;;;;;4748389;30;20059;-82
2021/10/27 02:29:23;;;;;;;35.40;9.45;;;3.70;99.90;;;;;;4718516;30;20044;-81
2021/10/27 02:31:53;;;;;;;59.47;11.02;;;3.60;99.90;;;;;;4749137;30;20225;-81
2021/10/27 02:34:20;;;;;;;21.98;7.57;;;3.60;99.90;;;;;;4749096;30;20055;-81
2021/10/27 02:36:48;;;;;;;34.58;8.75;;;3.70;99.90;;;;;;4748856;30;20056;-81
2021/10/27 02:39:16;;;;;;;19.98;6.88;;;3.70;99.90;;;;;;4749268;30;20059;-82
2021/10/27 02:41:44;;;;;;;21.90;5.60;;;3.80;99.90;;;;;;4748520;30;20052;-81
2021/10/27 02:44:11;;;;;;;14.50;4.88;;;3.90;99.90;;;;;;4747940;30;20051;-81
2021/10/27 02:46:39;;;;;;;4.15;3.72;;;3.90;99.90;;;;;;4747901;30;20063;-82
2021/10/27 02:49:07;;;;;;;5.25;4.80;;;3.90;99.90;;;;;;4749803;30;20075;-82
2021/10/27 02:51:34;;;;;;;30.30;7.72;;;3.90;99.90;;;;;;4733353;30;20060;-82
2021/10/27 02:54:02;;;;;;;75.00;13.68;;;3.80;99.90;;;;;;4749105;30;20062;-82
2021/10/27 02:56:30;;;;;;;15.68;5.05;;;3.70;99.90;;;;;;4749558;30;20057;-82
2021/10/27 02:58:58;;;;;;;85.40;12.35;;;3.80;99.90;;;;;;4748957;30;20498;-81
2021/10/27 03:01:25;;;;;;;14.02;4.85;;;3.70;99.90;;;;;;4747376;30;20056;-82
2021/10/27 03:03:54;;;;;;;42.03;9.80;;;3.60;99.90;;;;;;4751104;30;20051;-80
2021/10/27 03:06:22;;;;;;;3.90;3.20;;;3.60;99.90;;;;;;4767018;30;20051;-81
2021/10/27 03:08:50;;;;;;;13.93;4.13;;;3.40;99.90;;;;;;4766873;30;20060;-81
2021/10/27 03:11:18;;;;;;;14.35;4.82;;;3.30;99.90;;;;;;4766506;30;20410;-81
2021/10/27 03:13:46;;;;;;;7.05;2.85;;;3.30;99.90;;;;;;4765300;30;20063;-82
2021/10/27 03:16:14;;;;;;;4.97;2.42;;;3.30;99.90;;;;;;4765671;30;20063;-81
2021/10/27 03:18:42;;;;;;;3.75;3.45;;;3.50;99.90;;;;;;4765637;30;20063;-82
2021/10/27 03:21:10;;;;;;;5.20;3.55;;;3.70;99.90;;;;;;4766165;30;20593;-82
2021/10/27 03:23:38;;;;;;;21.95;4.68;;;3.60;99.90;;;;;;4767377;30;20048;-82
2021/10/27 03:26:06;;;;;;;3.10;2.67;;;3.50;99.90;;;;;;4754233;30;20048;-83
2021/10/27 03:28:34;;;;;;;4.05;3.17;;;3.60;99.90;;;;;;4748924;30;20052;-81
2021/10/27 03:31:02;;;;;;;3.63;3.05;;;3.70;99.90;;;;;;4730358;30;20539;-82
2021/10/27 03:33:29;;;;;;;4.03;3.15;;;3.70;99.90;;;;;;4718667;30;20059;-83
2021/10/27 03:35:57;;;;;;;2.72;2.53;;;3.80;99.90;;;;;;4748085;30;20056;-82
2021/10/27 03:38:25;;;;;;;3.13;2.83;;;3.80;99.90;;;;;;4732977;30;20138;-82
2021/10/27 03:40:53;;;;;;;3.78;3.03;;;3.80;99.90;;;;;;4732410;30;20387;-82
2021/10/27 03:43:20;;;;;;;4.90;2.75;;;3.90;99.90;;;;;;4749259;30;20063;-82
2021/10/27 03:45:48;;;;;;;2.92;2.72;;;3.90;99.90;;;;;;4746671;30;20459;-81
2021/10/27 03:48:17;;;;;;;5.50;3.08;;;3.90;99.90;;;;;;4749155;30;20479;-82
2021/10/27 03:50:45;;;;;;;21.42;5.40;;;4.00;99.90;;;;;;4748180;30;20411;-82
2021/10/27 03:53:13;;;;;;;84.43;11.40;;;3.90;99.90;;;;;;4748533;30;20529;-82
2021/10/27 03:55:41;;;;;;;73.60;11.70;;;3.90;99.90;;;;;;4747231;30;20056;-81
2021/10/27 03:58:08;;;;;;;10.65;4.53;;;3.40;99.90;;;;;;4731685;30;20075;-81
2021/10/27 04:00:37;;;;;;;3.33;3.05;;;3.40;99.90;;;;;;4730175;30;20419;-81
2021/10/27 04:03:05;;;;;;;3.35;2.97;;;3.50;99.90;;;;;;4732276;30;20065;-81
2021/10/27 04:05:33;;;;;;;3.47;3.17;;;3.50;99.90;;;;;;4745763;30;20063;-80
2021/10/27 04:08:02;;;;;;;3.22;2.88;;;3.60;99.90;;;;;;4750591;30;20521;-81
2021/10/27 04:10:32;;;;;;;3.83;3.63;;;3.70;99.90;;;;;;4765057;30;20043;-81
2021/10/27 04:13:00;;;;;;;28.73;6.75;;;3.80;99.90;;;;;;4765738;30;20051;-81
2021/10/27 04:15:28;;;;;;;13.98;3.30;;;3.70;99.90;;;;;;4748292;30;20060;-80
2021/10/27 04:17:55;;;;;;;4.18;2.85;;;3.40;99.90;;;;;;4748220;30;20052;-80
2021/10/27 04:20:24;;;;;;;2.50;2.30;;;3.10;99.90;;;;;;4761346;30;20650;-80
2021/10/27 04:22:52;;;;;;;1.92;1.83;;;3.10;99.90;;;;;;4748382;30;20064;-82
2021/10/27 04:25:19;;;;;;;4.55;2.40;;;3.20;99.90;;;;;;4717127;30;20044;-81
2021/10/27 04:27:47;;;;;;;4.07;3.05;;;3.30;99.90;;;;;;4732530;30;20068;-81
2021/10/27 04:30:15;;;;;;;5.10;3.08;;;3.40;99.90;;;;;;4745800;30;20059;-82
2021/10/27 04:32:43;;;;;;;18.08;4.57;;;3.50;99.90;;;;;;4748143;30;20056;-81
2021/10/27 04:35:10;;;;;;;54.28;10.50;;;3.50;99.90;;;;;;4746679;30;20067;-81
2021/10/27 04:37:40;;;;;;;133.35;15.77;;;3.10;99.90;;;;;;4717573;30;20052;-79
2021/10/27 04:40:11;;;;;;;50.63;7.75;;;2.90;99.90;;;;;;4746422;30;20067;-80
2021/10/27 04:42:38;;;;;;;14.18;4.90;;;2.90;99.90;;;;;;4746858;30;20534;-79
2021/10/27 04:45:08;;;;;;;2.85;2.58;;;3.10;99.90;;;;;;4746469;30;20443;-80
2021/10/27 04:47:38;;;;;;;3.33;3.03;;;3.20;99.90;;;;;;4748434;30;20060;-78
2021/10/27 04:50:09;;;;;;;9.73;3.33;;;3.30;99.90;;;;;;4746553;30;20294;-79
2021/10/27 04:52:45;;;;;;;3.28;2.45;;;3.40;99.90;;;;;;4731581;30;20048;-79
2021/10/27 04:55:14;;;;;;;3.30;3.00;;;3.40;99.90;;;;;;4746976;30;20059;-79
2021/10/27 04:57:42;;;;;;;3.70;3.35;;;3.60;99.90;;;;;;4750480;30;20052;-78
2021/10/27 05:00:11;;;;;;;6.68;3.63;;;3.60;99.90;;;;;;4746588;30;20657;-78
2021/10/27 05:02:39;;;;;;;2.75;2.55;;;3.60;99.90;;;;;;4743039;30;20061;-79
2021/10/27 05:05:07;;;;;;;9.48;4.65;;;3.60;99.90;;;;;;4751020;30;20052;-79
2021/10/27 05:07:35;;;;;;;68.10;7.47;;;3.40;99.90;;;;;;4760613;30;20052;-78
2021/10/27 05:10:03;;;;;;;65.45;12.48;;;3.10;99.90;;;;;;4747130;30;20048;-78
2021/10/27 05:12:31;;;;;;;27.05;5.07;;;2.90;99.90;;;;;;4769078;30;20047;-78
2021/10/27 05:14:59;;;;;;;33.83;7.93;;;2.80;99.90;;;;;;4766603;30;20341;-78
2021/10/27 05:17:27;;;;;;;36.20;7.43;;;2.80;99.90;;;;;;4768112;30;20357;-78
2021/10/27 05:19:54;;;;;;;56.03;8.82;;;2.80;99.90;;;;;;4752421;30;20060;-78
2021/10/27 05:22:22;;;;;;;11.48;3.35;;;2.80;99.90;;;;;;4768860;30;20052;-78
2021/10/27 05:24:50;;;;;;;2.47;1.90;;;2.80;99.90;;;;;;4765167;30;20479;-79
2021/10/27 05:27:17;;;;;;;3.53;2.85;;;2.90;99.90;;;;;;4750491;30;20392;-78
2021/10/27 05:29:45;;;;;;;2.88;2.67;;;3.10;99.90;;;;;;4741787;30;20380;-78
2021/10/27 05:32:13;;;;;;;10.70;2.45;;;3.00;99.90;;;;;;4724550;30;20074;-79
2021/10/27 05:34:42;;;;;;;3.67;3.05;;;3.00;99.90;;;;;;4753785;30;20514;-79
2021/10/27 05:37:11;;;;;;;3.05;2.83;;;3.00;99.90;;;;;;4769139;30;20391;-78
2021/10/27 05:39:39;;;;;;;35.15;7.32;;;3.00;99.90;;;;;;4768425;30;20051;-79
2021/10/27 05:42:10;;;;;;;61.22;10.30;;;2.70;99.90;;;;;;4767538;30;20486;-78
2021/10/27 05:44:38;;;;;;;16.15;3.65;;;2.60;99.90;;;;;;4767404;30;20060;-79
2021/10/27 05:47:05;;;;;;;16.95;4.38;;;2.60;99.90;;;;;;4765938;30;20055;-79
2021/10/27 05:57:19;;;;;;;22.08;5.43;;;3.00;99.90;;;;;;4765691;30;20063;-79
2021/10/27 05:59:48;;;;;;;20.27;3.53;;;3.10;99.90;;;;;;4748079;30;20404;-79
2021/10/27 06:02:16;;;;;;;10.20;3.97;;;3.00;99.90;;;;;;4752608;30;20051;-79
2021/10/27 06:04:44;;;;;;;12.73;5.13;;;2.90;99.90;;;;;;4756512;30;20051;-80
2021/10/27 06:07:13;;;;;;;23.73;7.93;;;2.90;99.90;;;;;;4761311;30;20383;-79
2021/10/27 06:09:40;;;;;;;13.43;2.33;;;3.00;99.90;;;;;;4742996;30;20056;-79
2021/10/27 06:12:13;;;;;;;10.93;2.78;;;3.10;99.90;;;;;;4740176;30;20439;-78
2021/10/27 06:14:41;;;;;;;3.63;3.10;;;3.10;99.90;;;;;;4758226;30;20056;-79
2021/10/27 06:17:09;;;;;;;15.30;3.90;;;3.00;99.90;;;;;;4747502;30;20868;-79
2021/10/27 06:19:37;;;;;;;7.43;3.08;;;2.90;99.90;;;;;;4751756;30;20696;-79
2021/10/27 06:22:05;;;;;;;4.57;3.33;;;2.70;99.90;;;;;;4755044;30;20052;-79
2021/10/27 06:24:34;;;;;;;7.70;3.30;;;2.60;99.90;;;;;;4765665;30;20447;-79
2021/10/27 06:27:04;;;;;;;7.35;4.13;;;2.70;99.90;;;;;;4763757;30;20070;-79
2021/10/27 06:29:57;;;;;;;3.67;2.95;;;2.80;99.90;;;;;;4765741;30;20040;-79
2021/10/27 06:32:52;;;;;;;11.45;3.28;;;2.80;99.90;;;;;;4767419;30;20055;-79
2021/10/27 06:35:16;;;;;;;3.65;2.47;;;3.00;99.90;;;;;;4749636;30;20052;-79
2021/10/27 06:48:27;;;;;;;9.57;3.35;;;3.40;99.90;;;;;;4757393;30;20047;-79
2021/10/27 06:51:09;;;;;;;2.88;2.13;;;3.50;99.90;;;;;;4760611;30;20499;-79
2021/10/27 06:53:37;;;;;;;2.10;1.90;;;3.50;99.90;;;;;;4762580;30;20051;-79
2021/10/27 06:56:11;;;;;;;34.03;8.73;;;3.50;99.90;;;;;;4766802;30;20052;-79
2021/10/27 06:59:10;;;;;;;3.50;2.63;;;3.40;99.90;;;;;;4756755;30;20056;-79
2021/10/27 07:02:04;;;;;;;8.38;3.05;;;3.40;99.90;;;;;;4742213;30;20041;-79
2021/10/27 07:06:59;;;;;;;13.50;3.42;;;3.30;99.90;;;;;;4753973;30;20414;-79
2021/10/27 07:15:03;;;;;;;3.38;2.45;;;3.10;99.90;;;;;;4751597;30;20056;-79
2021/10/27 07:17:32;;;;;;;9.95;3.10;;;3.10;99.90;;;;;;4751771;30;20375;-79
2021/10/27 07:20:10;;;;;;;21.20;4.38;;;3.20;99.90;;;;;;4750427;30;20056;-79
2021/10/27 07:22:38;;;;;;;25.98;5.80;;;3.30;99.90;;;;;;4755704;30;20487;-79
2021/10/27 07:25:08;;;;;;;3.65;3.33;;;3.60;99.90;;;;;;4753509;30;20502;-79
2021/10/27 07:27:37;;;;;;;3.47;3.17;;;3.80;99.90;;;;;;4748676;30;20055;-79
2021/10/27 07:30:05;;;;;;;3.30;3.00;;;4.10;99.90;;;;;;4747930;30;20051;-80
2021/10/27 07:32:36;;;;;;;3.83;3.50;;;4.20;99.90;;;;;;4755833;30;20075;-79
2021/10/27 07:40:48;;;;;;;3.67;3.38;;;4.80;99.90;;;;;;4747785;30;20060;-79
2021/10/27 07:43:26;;;;;;;3.78;3.30;;;4.90;99.90;;;;;;4749093;30;20048;-80
2021/10/27 07:45:55;;;;;;;4.22;3.92;;;5.00;99.90;;;;;;4746769;30;20067;-80
2021/10/27 07:48:23;;;;;;;5.13;4.57;;;5.10;99.90;;;;;;4733067;30;20052;-79
2021/10/27 07:50:51;;;;;;;4.75;4.40;;;5.30;99.90;;;;;;4747738;30;20048;-79
2021/10/27 07:53:22;;;;;;;4.10;3.78;;;5.30;99.90;;;;;;4748263;30;20044;-81
2021/10/27 07:55:51;;;;;;;5.18;4.70;;;5.50;99.90;;;;;;4747973;30;20052;-80
2021/10/27 07:58:21;;;;;;;4.07;3.72;;;5.70;99.90;;;;;;4748541;30;20274;-80
2021/10/27 08:00:58;;;;;;;5.45;4.70;;;5.80;99.90;;;;;;4726918;30;20048;-79
2021/10/27 08:03:27;;;;;;;5.65;5.22;;;5.90;99.90;;;;;;4733097;30;20060;-80
2021/10/27 08:06:13;;;;;;;5.22;4.72;;;6.10;99.90;;;;;;4764646;30;20506;-80
2021/10/27 08:08:41;;;;;;;4.38;3.97;;;6.30;99.90;;;;;;4765829;30;20055;-80
2021/10/27 08:11:11;;;;;;;4.72;4.15;;;6.60;99.90;;;;;;4765836;30;20060;-80
2021/10/27 08:13:39;;;;;;;4.25;3.85;;;6.60;99.90;;;;;;4763136;30;20476;-80
2021/10/27 08:16:10;;;;;;;4.15;3.63;;;6.80;99.90;;;;;;4747214;30;20044;-80
2021/10/27 08:18:38;;;;;;;5.05;4.43;;;7.00;99.90;;;;;;4748210;30;20052;-80
2021/10/27 08:21:07;;;;;;;4.55;4.25;;;7.10;99.90;;;;;;4747611;30;20051;-80
2021/10/27 08:23:39;;;;;;;5.25;4.03;;;7.30;99.90;;;;;;4748559;30;20060;-80
2021/10/27 08:26:12;;;;;;;4.18;3.80;;;7.40;99.90;;;;;;4748041;30;20049;-80
2021/10/27 08:28:42;;;;;;;6.03;4.53;;;7.50;99.90;;;;;;4749075;30;20064;-80
2021/10/27 08:36:27;;;;;;;5.43;3.75;;;7.60;99.90;;;;;;4767072;30;20058;-81
2021/10/27 08:38:59;;;;;;;5.18;4.50;;;7.70;99.90;;;;;;4729685;30;20051;-80
2021/10/27 08:41:45;;;;;;;4.68;4.28;;;7.90;99.90;;;;;;4763946;30;20062;-82
2021/10/27 08:44:13;;;;;;;4.38;3.97;;;7.90;99.90;;;;;;4762019;30;20063;-81
2021/10/27 08:46:41;;;;;;;4.57;4.18;;;7.90;99.90;;;;;;4766784;30;20052;-82
2021/10/27 08:49:09;;;;;;;4.53;4.13;;;8.30;99.90;;;;;;4741604;30;20106;-82
2021/10/27 08:51:38;;;;;;;4.65;4.25;;;8.30;99.90;;;;;;4737520;30;20970;-82
2021/10/27 08:54:08;;;;;;;3.90;3.60;;;8.40;99.90;;;;;;4748324;30;20052;-83
2021/10/27 08:56:39;;;;;;;7.88;4.63;;;8.50;99.90;;;;;;4754299;30;20392;-83
2021/10/27 08:59:57;;;;;;;8.23;4.25;;;8.50;99.90;;;;;;4750381;30;20064;-83
2021/10/27 09:16:09;;;;;;;5.22;4.38;;;9.10;99.90;;;;;;4725433;30;20067;-80
2021/10/27 09:44:20;;;;;;;8.70;4.53;;;10.20;99.90;;;;;;4766743;30;20075;-81
2021/10/27 09:55:46;;;;;;;4.18;3.78;;;10.70;99.90;;;;;;4733507;30;20063;-82
2021/10/27 10:04:07;;;;;;;6.53;4.50;;;11.10;99.90;;;;;;4750114;30;20517;-82
2021/10/27 10:07:02;;;;;;;4.78;4.32;;;11.20;99.90;;;;;;4758380;30;20056;-82
2021/10/27 10:09:32;;;;;;;4.10;3.42;;;11.20;99.90;;;;;;4744324;30;20055;-81
2021/10/27 10:12:01;;;;;;;4.65;4.30;;;11.40;99.90;;;;;;4753799;30;20323;-81
2021/10/27 10:14:29;;;;;;;5.40;4.00;;;11.50;99.90;;;;;;4718741;30;20056;-82
2021/10/27 10:17:01;;;;;;;6.63;3.80;;;11.60;99.90;;;;;;4747829;30;20052;-81
2021/10/27 10:19:38;;;;;;;5.68;4.57;;;11.60;99.90;;;;;;4718137;30;20400;-81
2021/10/27 10:22:24;;;;;;;5.93;4.05;;;11.70;99.90;;;;;;4746772;30;20063;-81
2021/10/27 10:24:52;;;;;;;3.38;2.90;;;11.80;99.90;;;;;;4743051;30;20056;-81
2021/10/27 10:27:38;;;;;;;4.53;3.47;;;11.80;99.90;;;;;;4733542;30;20053;-82
2021/10/27 10:30:38;;;;;;;4.75;3.30;;;11.90;99.90;;;;;;4745187;30;20325;-82
2021/10/27 10:33:08;;;;;;;5.53;4.97;;;12.00;99.90;;;;;;4753101;30;20056;-81
2021/10/27 10:36:00;;;;;;;5.10;3.58;;;12.10;99.90;;;;;;4747370;30;20055;-81
2021/10/27 10:44:57;;;;;;;7.93;3.33;;;12.40;99.90;;;;;;4755248;30;20063;-81
2021/10/27 11:38:37;;;;;;;3.25;2.42;;;13.50;99.90;;;;;;4767061;30;20055;-84
2021/10/27 11:44:01;;;;;;;9.10;3.30;;;13.60;99.90;;;;;;4767130;30;20059;-85
2021/10/27 11:47:01;;;;;;;5.38;3.08;;;13.60;99.90;;;;;;4766303;30;20509;-84
2021/10/27 11:49:37;;;;;;;6.32;3.80;;;13.60;99.90;;;;;;4762984;30;20065;-87
2021/10/27 11:52:05;;;;;;;5.28;2.88;;;13.60;99.90;;;;;;4749865;30;20056;-86
2021/10/27 11:54:38;;;;;;;7.53;3.75;;;13.60;99.90;;;;;;4748900;30;20052;-86
2021/10/27 11:57:09;;;;;;;7.55;3.35;;;13.70;99.90;;;;;;4748937;30;20570;-85
2021/10/27 11:59:47;;;;;;;5.28;3.05;;;13.70;99.90;;;;;;4748694;30;20063;-86
2021/10/27 12:02:16;;;;;;;3.55;3.25;;;13.80;99.90;;;;;;4732886;30;20052;-86
2021/10/27 12:04:44;;;;;;;6.57;3.25;;;13.80;99.90;;;;;;4755698;30;20064;-84
2021/10/27 12:07:25;;;;;;;5.28;3.58;;;13.90;99.90;;;;;;4772151;30;20055;-84
2021/10/27 12:18:10;;;;;;;4.95;3.03;;;13.90;99.90;;;;;;4755185;30;20075;-82
2021/10/27 12:20:44;;;;;;;4.65;3.95;;;14.00;99.90;;;;;;4747970;30;20071;-82
2021/10/27 12:23:19;;;;;;;10.90;5.55;;;14.00;99.90;;;;;;4753812;30;20048;-82
2021/10/27 12:25:49;;;;;;;5.55;3.95;;;13.80;99.90;;;;;;4762169;30;20066;-83
2021/10/27 12:28:34;;;;;;;7.05;4.63;;;13.90;99.90;;;;;;4728849;30;20482;-79
2021/10/27 12:31:17;;;;;;;6.53;4.43;;;14.00;99.90;;;;;;4740221;30;20054;-82
2021/10/27 12:33:46;;;;;;;4.65;4.15;;;13.90;99.90;;;;;;4763430;30;20043;-81
2021/10/27 12:36:26;;;;;;;2.92;2.72;;;13.90;99.90;;;;;;4748912;30;20283;-82
2021/10/27 12:39:30;;;;;;;3.92;3.00;;;13.90;99.90;;;;;;4762766;30;20048;-84
2021/10/27 12:42:04;;;;;;;3.67;3.40;;;13.80;99.90;;;;;;4763239;30;20044;-84
2021/10/27 12:44:35;;;;;;;9.25;3.72;;;13.80;99.90;;;;;;4763259;30;20393;-79
2021/10/27 12:47:13;;;;;;;7.57;4.57;;;13.80;99.90;;;;;;4763615;30;20504;-81
2021/10/27 12:49:43;;;;;;;5.57;4.05;;;13.80;99.90;;;;;;4746950;30;20052;-81
2021/10/27 12:52:25;;;;;;;5.22;3.75;;;13.90;99.90;;;;;;4746813;30;20439;-79
2021/10/27 12:55:10;;;;;;;10.80;3.53;;;14.00;99.90;;;;;;4746388;30;20060;-82
2021/10/27 12:58:00;;;;;;;5.38;5.00;;;14.10;99.90;;;;;;4744912;30;20056;-82
2021/10/27 13:00:55;;;;;;;8.68;5.00;;;14.20;99.90;;;;;;4744645;30;20055;-80
2021/10/27 13:06:06;;;;;;;4.15;3.55;;;14.10;99.90;;;;;;4755780;30;20055;-81
2021/10/27 13:13:54;;;;;;;5.60;4.32;;;14.10;99.90;;;;;;4747492;30;20414;-80
2021/10/27 13:22:03;;;;;;;9.02;4.32;;;14.00;99.90;;;;;;4747611;30;20059;-80
2021/10/27 13:30:04;;;;;;;4.45;3.95;;;14.00;99.90;;;;;;4732952;30;20055;-83
2021/10/27 13:32:37;;;;;;;6.32;4.80;;;14.00;99.90;;;;;;4734131;30;20433;-82
2021/10/27 13:35:05;;;;;;;6.93;5.05;;;14.00;99.90;;;;;;4745162;30;20400;-81
2021/10/27 13:37:34;;;;;;;7.32;5.55;;;14.10;99.90;;;;;;4745134;30;20052;-81
2021/10/27 13:40:04;;;;;;;5.22;4.53;;;14.00;99.90;;;;;;4731750;30;20064;-80
2021/10/27 13:43:11;;;;;;;10.95;5.45;;;14.00;99.90;;;;;;4730646;30;20049;-81
2021/10/27 13:45:38;;;;;;;8.48;3.72;;;13.90;99.90;;;;;;4729916;30;20048;-83
2021/10/27 14:07:08;;;;;;;4.65;4.20;;;13.60;99.90;;;;;;4766815;30;20332;-80
2021/10/27 14:18:15;;;;;;;5.72;3.88;;;13.50;99.90;;;;;;4744890;30;20059;-79
2021/10/27 15:20:52;;;;;;;4.47;3.92;;;12.30;99.90;;;;;;4742560;30;20063;-83
2021/10/27 15:23:56;;;;;;;6.22;3.38;;;12.30;99.90;;;;;;4730389;30;20064;-82
2021/10/27 15:34:50;;;;;;;4.60;4.13;;;12.00;99.90;;;;;;4749065;30;20072;-82
2021/10/27 15:40:21;;;;;;;10.57;4.38;;;12.00;99.90;;;;;;4747765;30;20121;-82
2021/10/27 15:44:05;;;;;;;5.97;3.50;;;11.80;99.90;;;;;;4747053;30;20052;-82
2021/10/27 15:51:26;;;;;;;11.07;6.05;;;11.40;99.90;;;;;;4749407;30;20059;-83
2021/10/27 15:53:55;;;;;;;3.05;2.85;;;11.30;99.90;;;;;;4748431;30;20048;-83
2021/10/27 15:56:23;;;;;;;4.40;3.53;;;11.10;99.90;;;;;;4727935;30;20048;-84
2021/10/27 15:58:51;;;;;;;3.53;2.80;;;11.00;99.90;;;;;;4745021;30;20411;-83
2021/10/27 16:01:19;;;;;;;4.50;4.20;;;10.90;99.90;;;;;;4758184;30;20051;-83
2021/10/27 16:03:47;;;;;;;3.72;3.33;;;10.80;99.90;;;;;;4755540;30;20380;-83
2021/10/27 16:06:15;;;;;;;3.30;2.95;;;10.70;99.90;;;;;;4722828;30;20057;-83
2021/10/27 16:08:46;;;;;;;10.70;5.80;;;10.60;99.90;;;;;;4729038;30;20392;-83
2021/10/27 16:11:14;;;;;;;4.30;3.78;;;10.40;99.90;;;;;;4730158;30;20083;-82
2021/10/27 16:13:42;;;;;;;5.68;4.00;;;10.10;99.90;;;;;;4730518;30;20423;-82
2021/10/27 16:16:12;;;;;;;3.67;3.38;;;9.80;99.90;;;;;;4759058;30;20479;-82
2021/10/27 16:18:40;;;;;;;3.05;2.45;;;9.60;99.90;;;;;;4764601;30;20379;-82
2021/10/27 16:21:09;;;;;;;4.22;2.92;;;9.30;99.90;;;;;;4764406;30;20050;-82
2021/10/27 16:23:37;;;;;;;4.03;3.63;;;9.00;99.90;;;;;;4761209;30;20052;-82
2021/10/27 16:26:06;;;;;;;7.80;3.72;;;9.00;99.90;;;;;;4752829;30;20589;-82
2021/10/27 16:28:33;;;;;;;7.65;3.60;;;8.80;99.90;;;;;;4766197;30;20062;-82
2021/10/27 16:31:03;;;;;;;7.03;4.25;;;8.70;99.90;;;;;;4752184;30;20056;-82
2021/10/27 16:33:32;;;;;;;4.65;3.53;;;8.70;99.90;;;;;;4748566;30;20060;-82
2021/10/27 16:36:00;;;;;;;7.75;4.82;;;8.70;99.90;;;;;;4743298;30;20052;-82
2021/10/27 16:38:28;;;;;;;4.00;3.50;;;8.60;99.90;;;;;;4744324;30;20052;-81
2021/10/27 16:40:59;;;;;;;5.03;4.38;;;8.40;99.90;;;;;;4748818;30;20055;-81
2021/10/27 16:43:30;;;;;;;4.05;3.63;;;8.20;99.90;;;;;;4749496;30;20052;-82
2021/10/27 16:45:58;;;;;;;4.85;3.55;;;8.00;99.90;;;;;;4763096;30;20048;-81
2021/10/27 16:48:27;;;;;;;5.32;3.90;;;8.00;99.90;;;;;;4757133;30;20056;-81
2021/10/27 16:50:57;;;;;;;5.43;4.65;;;8.00;99.90;;;;;;4749091;30;20048;-85
2021/10/27 16:53:26;;;;;;;15.07;4.60;;;8.00;99.90;;;;;;4749237;30;20380;-82
2021/10/27 16:55:54;;;;;;;6.53;4.28;;;8.00;99.90;;;;;;4749626;30;20044;-86
2021/10/27 16:58:22;;;;;;;25.42;4.80;;;7.80;99.90;;;;;;4742334;30;20064;-84
2021/10/27 17:00:50;;;;;;;6.80;4.07;;;7.60;99.90;;;;;;4730032;30;20052;-85
2021/10/27 17:03:18;;;;;;;5.13;4.20;;;7.60;99.90;;;;;;4731150;30;20522;-85
2021/10/27 17:05:47;;;;;;;5.57;3.83;;;7.30;99.90;;;;;;4719384;30;20430;-85
2021/10/27 17:08:17;;;;;;;5.85;3.30;;;7.10;99.90;;;;;;4737384;30;20060;-85
2021/10/27 17:10:47;;;;;;;3.35;3.05;;;7.10;99.90;;;;;;4751548;30;20446;-86
2021/10/27 17:13:17;;;;;;;7.75;4.70;;;7.10;99.90;;;;;;4731307;30;20483;-87
2021/10/27 17:15:52;;;;;;;4.72;4.32;;;7.10;99.90;;;;;;4719261;30;20076;-86
2021/10/27 17:18:22;;;;;;;7.95;5.22;;;7.00;99.90;;;;;;4718675;30;20053;-87
2021/10/27 17:20:50;;;;;;;8.85;6.15;;;7.10;99.90;;;;;;4719414;30;20049;-83
2021/10/27 17:23:27;;;;;;;6.22;4.97;;;7.20;99.90;;;;;;4705048;30;20075;-83
2021/10/27 17:25:55;;;;;;;5.70;4.00;;;7.30;99.90;;;;;;4734524;30;20053;-80
2021/10/27 17:28:24;;;;;;;6.43;4.93;;;7.10;99.90;;;;;;4735239;30;20053;-83
2021/10/27 17:30:53;;;;;;;10.45;7.13;;;6.90;99.90;;;;;;4732661;30;20060;-83
2021/10/27 17:33:22;;;;;;;8.68;6.45;;;6.80;99.90;;;;;;4734752;30;20499;-81
2021/10/27 17:35:51;;;;;;;9.30;6.25;;;6.90;99.90;;;;;;4735336;30;20146;-82
2021/10/27 17:38:19;;;;;;;9.77;6.75;;;6.90;99.90;;;;;;4734728;30;20084;-82
2021/10/27 17:40:48;;;;;;;6.55;5.13;;;6.90;99.90;;;;;;4734509;30;20060;-82
2021/10/27 17:43:17;;;;;;;10.05;7.72;;;6.90;99.90;;;;;;4734783;30;20048;-84
2021/10/27 17:45:45;;;;;;;7.80;5.60;;;6.90;99.90;;;;;;4733837;30;20049;-81
2021/10/27 17:48:19;;;;;;;8.63;6.82;;;6.90;99.90;;;;;;4735149;30;20502;-82
2021/10/27 17:51:00;;;;;;;7.45;5.07;;;6.80;99.90;;;;;;4726808;30;20543;-82
2021/10/27 17:58:48;;;;;;;12.43;8.15;;;6.50;99.90;;;;;;4708912;30;20056;-83